sensor_id;sensor_type;location;lat;lon;timestamp;pressure;altitude;pressure_sealevel;temperature;humidity
72465;BME280;60471;52.150;4.508;2023-05-15T00:00:17;101397.63;;;13.44;75.01
72465;BME280;60471;52.150;4.508;2023-05-15T00:02:43;101391.91;;;13.34;75.40
72465;BME280;60471;52.150;4.508;2023-05-15T00:05:10;101387.97;;;13.26;75.96
72465;BME280;60471;52.150;4.508;2023-05-15T00:07:37;101373.69;;;13.28;75.98
72465;BME280;60471;52.150;4.508;2023-05-15T00:10:04;101371.22;;;13.25;75.81
72465;BME280;60471;52.150;4.508;2023-05-15T00:12:31;101366.59;;;13.29;76.07
72465;BME280;60471;52.150;4.508;2023-05-15T00:14:57;101353.53;;;13.26;76.12
72465;BME280;60471;52.150;4.508;2023-05-15T00:17:24;101354.97;;;13.31;76.08
72465;BME280;60471;52.150;4.508;2023-05-15T00:19:50;101352.66;;;13.25;75.71
72465;BME280;60471;52.150;4.508;2023-05-15T00:22:22;101360.63;;;13.25;75.79
72465;BME280;60471;52.150;4.508;2023-05-15T00:24:49;101355.09;;;13.11;76.01
72465;BME280;60471;52.150;4.508;2023-05-15T00:27:15;101354.63;;;13.03;76.57
72465;BME280;60471;52.150;4.508;2023-05-15T00:29:41;101353.13;;;12.97;76.88
72465;BME280;60471;52.150;4.508;2023-05-15T00:32:07;101350.81;;;13.09;76.94
72465;BME280;60471;52.150;4.508;2023-05-15T00:34:33;101355.09;;;13.11;76.36
72465;BME280;60471;52.150;4.508;2023-05-15T00:37:00;101354.31;;;13.09;76.39
72465;BME280;60471;52.150;4.508;2023-05-15T00:39:26;101349.25;;;13.04;76.36
72465;BME280;60471;52.150;4.508;2023-05-15T00:41:52;101350.25;;;13.02;75.69
72465;BME280;60471;52.150;4.508;2023-05-15T00:44:21;101346.06;;;12.98;76.30
72465;BME280;60471;52.150;4.508;2023-05-15T00:46:48;101353.53;;;13.07;75.83
72465;BME280;60471;52.150;4.508;2023-05-15T00:49:17;101355.19;;;13.10;75.48
72465;BME280;60471;52.150;4.508;2023-05-15T00:51:46;101357.28;;;13.03;75.49
72465;BME280;60471;52.150;4.508;2023-05-15T00:54:12;101358.34;;;12.99;75.94
72465;BME280;60471;52.150;4.508;2023-05-15T00:56:39;101353.06;;;12.99;75.84
72465;BME280;60471;52.150;4.508;2023-05-15T00:59:08;101346.38;;;12.92;75.94
72465;BME280;60471;52.150;4.508;2023-05-15T01:01:35;101342.06;;;12.89;76.27
72465;BME280;60471;52.150;4.508;2023-05-15T01:04:02;101340.44;;;12.87;76.12
72465;BME280;60471;52.150;4.508;2023-05-15T01:06:30;101331.63;;;12.86;76.68
72465;BME280;60471;52.150;4.508;2023-05-15T01:08:58;101334.13;;;12.89;76.18
72465;BME280;60471;52.150;4.508;2023-05-15T01:11:29;101338.06;;;12.81;76.08
72465;BME280;60471;52.150;4.508;2023-05-15T01:14:05;101335.81;;;12.73;76.60
72465;BME280;60471;52.150;4.508;2023-05-15T01:16:34;101342.03;;;12.72;76.55
72465;BME280;60471;52.150;4.508;2023-05-15T01:19:01;101339.69;;;12.66;76.80
72465;BME280;60471;52.150;4.508;2023-05-15T01:27:14;101331.72;;;12.48;77.22
72465;BME280;60471;52.150;4.508;2023-05-15T01:41:20;101327.63;;;12.41;77.38
72465;BME280;60471;52.150;4.508;2023-05-15T01:43:58;101332.06;;;12.41;77.48
72465;BME280;60471;52.150;4.508;2023-05-15T01:46:30;101330.00;;;12.29;78.00
72465;BME280;60471;52.150;4.508;2023-05-15T01:49:00;101329.78;;;12.33;78.40
72465;BME280;60471;52.150;4.508;2023-05-15T01:51:29;101333.72;;;12.43;78.21
72465;BME280;60471;52.150;4.508;2023-05-15T01:53:58;101322.59;;;12.54;77.44
72465;BME280;60471;52.150;4.508;2023-05-15T01:56:26;101333.03;;;12.57;76.23
72465;BME280;60471;52.150;4.508;2023-05-15T01:58:52;101332.34;;;12.54;76.77
72465;BME280;60471;52.150;4.508;2023-05-15T02:01:21;101342.66;;;12.60;76.52
72465;BME280;60471;52.150;4.508;2023-05-15T02:03:48;101325.81;;;12.61;76.49
72465;BME280;60471;52.150;4.508;2023-05-15T02:06:15;101337.81;;;12.68;76.52
72465;BME280;60471;52.150;4.508;2023-05-15T02:08:41;101335.47;;;12.62;76.49
72465;BME280;60471;52.150;4.508;2023-05-15T02:11:09;101335.16;;;12.68;76.24
72465;BME280;60471;52.150;4.508;2023-05-15T02:13:36;101335.84;;;12.54;76.64
72465;BME280;60471;52.150;4.508;2023-05-15T02:16:03;101323.19;;;12.61;76.60
72465;BME280;60471;52.150;4.508;2023-05-15T02:18:30;101325.94;;;12.58;76.78
72465;BME280;60471;52.150;4.508;2023-05-15T02:20:56;101320.53;;;12.61;76.28
72465;BME280;60471;52.150;4.508;2023-05-15T02:23:22;101321.81;;;12.71;76.45
72465;BME280;60471;52.150;4.508;2023-05-15T02:28:37;101310.16;;;12.56;76.85
72465;BME280;60471;52.150;4.508;2023-05-15T02:36:52;101301.31;;;12.38;77.47
72465;BME280;60471;52.150;4.508;2023-05-15T02:39:22;101308.09;;;12.44;77.29
72465;BME280;60471;52.150;4.508;2023-05-15T02:41:50;101301.59;;;12.32;77.31
72465;BME280;60471;52.150;4.508;2023-05-15T02:44:19;101301.44;;;12.35;77.39
72465;BME280;60471;52.150;4.508;2023-05-15T02:46:47;101297.81;;;12.38;77.08
72465;BME280;60471;52.150;4.508;2023-05-15T02:49:15;101297.66;;;12.41;76.88
72465;BME280;60471;52.150;4.508;2023-05-15T02:51:41;101298.25;;;12.29;77.17
72465;BME280;60471;52.150;4.508;2023-05-15T02:54:08;101300.47;;;12.38;77.26
72465;BME280;60471;52.150;4.508;2023-05-15T02:56:34;101305.81;;;12.36;76.42
72465;BME280;60471;52.150;4.508;2023-05-15T02:59:00;101295.19;;;12.19;77.41
72465;BME280;60471;52.150;4.508;2023-05-15T03:01:27;101304.69;;;12.23;77.61
72465;BME280;60471;52.150;4.508;2023-05-15T03:03:53;101306.03;;;12.32;78.11
72465;BME280;60471;52.150;4.508;2023-05-15T03:06:19;101301.88;;;12.45;77.12
72465;BME280;60471;52.150;4.508;2023-05-15T03:08:45;101316.28;;;12.39;76.85
72465;BME280;60471;52.150;4.508;2023-05-15T03:11:12;101317.53;;;12.50;76.73
72465;BME280;60471;52.150;4.508;2023-05-15T03:13:38;101312.00;;;12.54;76.73
72465;BME280;60471;52.150;4.508;2023-05-15T03:16:04;101316.94;;;12.62;76.47
72465;BME280;60471;52.150;4.508;2023-05-15T03:18:31;101317.44;;;12.70;75.73
72465;BME280;60471;52.150;4.508;2023-05-15T03:20:57;101321.56;;;12.75;75.95
72465;BME280;60471;52.150;4.508;2023-05-15T03:23:23;101326.66;;;12.97;75.11
72465;BME280;60471;52.150;4.508;2023-05-15T03:25:49;101321.72;;;12.90;74.62
72465;BME280;60471;52.150;4.508;2023-05-15T03:28:15;101333.13;;;12.92;74.98
72465;BME280;60471;52.150;4.508;2023-05-15T03:30:44;101324.97;;;13.14;74.10
72465;BME280;60471;52.150;4.508;2023-05-15T03:33:11;101324.66;;;13.20;73.81
72465;BME280;60471;52.150;4.508;2023-05-15T03:35:37;101326.69;;;13.32;73.38
72465;BME280;60471;52.150;4.508;2023-05-15T03:38:03;101329.50;;;13.29;73.21
72465;BME280;60471;52.150;4.508;2023-05-15T03:40:29;101329.25;;;13.33;72.73
72465;BME280;60471;52.150;4.508;2023-05-15T03:42:55;101322.25;;;13.32;72.93
72465;BME280;60471;52.150;4.508;2023-05-15T03:45:22;101321.16;;;13.37;72.38
72465;BME280;60471;52.150;4.508;2023-05-15T03:47:48;101324.19;;;13.46;72.08
72465;BME280;60471;52.150;4.508;2023-05-15T03:50:15;101322.41;;;13.47;72.12
72465;BME280;60471;52.150;4.508;2023-05-15T03:52:41;101326.91;;;13.45;71.90
72465;BME280;60471;52.150;4.508;2023-05-15T03:55:07;101328.25;;;13.36;71.28
72465;BME280;60471;52.150;4.508;2023-05-15T03:57:34;101321.84;;;13.40;71.85
72465;BME280;60471;52.150;4.508;2023-05-15T04:00:00;101323.84;;;13.52;71.12
72465;BME280;60471;52.150;4.508;2023-05-15T04:02:28;101319.06;;;13.26;71.69
72465;BME280;60471;52.150;4.508;2023-05-15T04:04:55;101307.75;;;13.40;71.62
72465;BME280;60471;52.150;4.508;2023-05-15T04:07:21;101310.56;;;13.37;71.30
72465;BME280;60471;52.150;4.508;2023-05-15T04:09:47;101311.72;;;13.31;71.62
72465;BME280;60471;52.150;4.508;2023-05-15T04:12:13;101318.09;;;13.44;71.43
72465;BME280;60471;52.150;4.508;2023-05-15T04:14:39;101321.03;;;13.55;70.64
72465;BME280;60471;52.150;4.508;2023-05-15T04:17:05;101310.44;;;13.55;70.35
72465;BME280;60471;52.150;4.508;2023-05-15T04:19:32;101314.97;;;13.53;71.20
72465;BME280;60471;52.150;4.508;2023-05-15T04:21:58;101308.34;;;13.45;71.23
72465;BME280;60471;52.150;4.508;2023-05-15T04:24:24;101315.44;;;13.77;70.72
72465;BME280;60471;52.150;4.508;2023-05-15T04:26:50;101318.38;;;13.73;70.65
72465;BME280;60471;52.150;4.508;2023-05-15T04:29:16;101310.31;;;13.74;70.57
72465;BME280;60471;52.150;4.508;2023-05-15T04:31:43;101323.06;;;13.68;70.56
72465;BME280;60471;52.150;4.508;2023-05-15T04:34:09;101317.75;;;14.01;69.76
72465;BME280;60471;52.150;4.508;2023-05-15T04:36:35;101309.56;;;13.88;69.22
72465;BME280;60471;52.150;4.508;2023-05-15T04:39:02;101311.63;;;13.99;69.25
72465;BME280;60471;52.150;4.508;2023-05-15T04:41:28;101305.06;;;13.90;69.02
72465;BME280;60471;52.150;4.508;2023-05-15T04:43:55;101299.31;;;13.98;69.17
72465;BME280;60471;52.150;4.508;2023-05-15T04:46:21;101301.06;;;14.14;68.81
72465;BME280;60471;52.150;4.508;2023-05-15T04:48:47;101298.31;;;14.16;68.28
72465;BME280;60471;52.150;4.508;2023-05-15T04:51:13;101301.25;;;14.11;68.46
72465;BME280;60471;52.150;4.508;2023-05-15T04:53:39;101303.94;;;14.10;69.33
72465;BME280;60471;52.150;4.508;2023-05-15T04:56:06;101299.00;;;14.19;68.81
72465;BME280;60471;52.150;4.508;2023-05-15T04:58:32;101294.63;;;14.18;68.84
72465;BME280;60471;52.150;4.508;2023-05-15T05:00:58;101291.53;;;14.10;68.91
72465;BME280;60471;52.150;4.508;2023-05-15T05:03:25;101290.19;;;14.19;69.25
72465;BME280;60471;52.150;4.508;2023-05-15T05:05:51;101297.72;;;14.27;69.17
72465;BME280;60471;52.150;4.508;2023-05-15T05:08:17;101296.34;;;14.19;68.82
72465;BME280;60471;52.150;4.508;2023-05-15T05:10:43;101297.53;;;14.30;69.49
72465;BME280;60471;52.150;4.508;2023-05-15T05:13:09;101294.53;;;14.20;69.37
72465;BME280;60471;52.150;4.508;2023-05-15T05:15:36;101294.72;;;14.17;69.95
72465;BME280;60471;52.150;4.508;2023-05-15T05:18:02;101287.38;;;14.22;69.69
72465;BME280;60471;52.150;4.508;2023-05-15T05:20:28;101291.03;;;14.35;69.54
72465;BME280;60471;52.150;4.508;2023-05-15T05:22:55;101290.19;;;14.35;69.55
72465;BME280;60471;52.150;4.508;2023-05-15T05:25:21;101285.56;;;14.38;68.78
72465;BME280;60471;52.150;4.508;2023-05-15T05:27:47;101287.78;;;14.30;69.27
72465;BME280;60471;52.150;4.508;2023-05-15T05:30:13;101288.22;;;14.38;69.11
72465;BME280;60471;52.150;4.508;2023-05-15T05:32:40;101281.69;;;14.60;68.18
72465;BME280;60471;52.150;4.508;2023-05-15T05:35:06;101281.72;;;14.90;68.02
72465;BME280;60471;52.150;4.508;2023-05-15T05:37:33;101286.41;;;15.00;67.44
72465;BME280;60471;52.150;4.508;2023-05-15T05:39:59;101283.84;;;14.99;67.97
72465;BME280;60471;52.150;4.508;2023-05-15T05:42:25;101280.59;;;14.94;68.34
72465;BME280;60471;52.150;4.508;2023-05-15T05:44:51;101283.84;;;14.99;67.70
72465;BME280;60471;52.150;4.508;2023-05-15T05:47:17;101278.47;;;15.15;67.58
72465;BME280;60471;52.150;4.508;2023-05-15T05:49:44;101277.81;;;15.11;67.56
72465;BME280;60471;52.150;4.508;2023-05-15T05:52:12;101274.28;;;15.11;67.80
72465;BME280;60471;52.150;4.508;2023-05-15T05:54:39;101270.50;;;15.15;67.68
72465;BME280;60471;52.150;4.508;2023-05-15T05:57:05;101268.03;;;15.12;67.52
72465;BME280;60471;52.150;4.508;2023-05-15T05:59:32;101273.34;;;15.12;67.39
72465;BME280;60471;52.150;4.508;2023-05-15T06:01:58;101265.53;;;15.08;68.11
72465;BME280;60471;52.150;4.508;2023-05-15T06:04:25;101268.13;;;15.24;67.72
72465;BME280;60471;52.150;4.508;2023-05-15T06:06:51;101268.50;;;15.18;67.10
72465;BME280;60471;52.150;4.508;2023-05-15T06:09:18;101271.00;;;15.21;67.53
72465;BME280;60471;52.150;4.508;2023-05-15T06:11:44;101267.94;;;15.13;67.08
72465;BME280;60471;52.150;4.508;2023-05-15T06:14:11;101265.47;;;15.10;66.30
72465;BME280;60471;52.150;4.508;2023-05-15T06:16:37;101270.63;;;14.97;67.05
72465;BME280;60471;52.150;4.508;2023-05-15T06:19:03;101274.28;;;14.81;67.90
72465;BME280;60471;52.150;4.508;2023-05-15T06:21:29;101274.22;;;14.96;67.82
72465;BME280;60471;52.150;4.508;2023-05-15T06:23:56;101276.75;;;15.14;67.37
72465;BME280;60471;52.150;4.508;2023-05-15T06:26:23;101268.22;;;15.23;66.80
72465;BME280;60471;52.150;4.508;2023-05-15T06:28:50;101271.19;;;15.32;65.98
72465;BME280;60471;52.150;4.508;2023-05-15T06:31:16;101264.53;;;15.25;66.60
72465;BME280;60471;52.150;4.508;2023-05-15T06:33:42;101272.16;;;15.46;66.16
72465;BME280;60471;52.150;4.508;2023-05-15T06:36:08;101266.72;;;15.47;65.79
72465;BME280;60471;52.150;4.508;2023-05-15T06:38:35;101278.13;;;15.49;65.78
72465;BME280;60471;52.150;4.508;2023-05-15T06:41:01;101270.84;;;15.67;65.33
72465;BME280;60471;52.150;4.508;2023-05-15T06:43:27;101274.28;;;15.69;65.62
72465;BME280;60471;52.150;4.508;2023-05-15T06:45:53;101275.41;;;15.79;66.20
72465;BME280;60471;52.150;4.508;2023-05-15T06:48:20;101279.75;;;16.09;65.55
72465;BME280;60471;52.150;4.508;2023-05-15T06:50:46;101271.47;;;16.13;63.62
72465;BME280;60471;52.150;4.508;2023-05-15T06:53:12;101278.06;;;15.79;65.19
72465;BME280;60471;52.150;4.508;2023-05-15T06:55:38;101284.34;;;15.64;65.72
72465;BME280;60471;52.150;4.508;2023-05-15T06:58:04;101278.50;;;15.57;65.73
72465;BME280;60471;52.150;4.508;2023-05-15T07:00:31;101275.84;;;15.57;66.38
72465;BME280;60471;52.150;4.508;2023-05-15T07:02:57;101286.72;;;15.69;65.64
72465;BME280;60471;52.150;4.508;2023-05-15T07:05:23;101289.06;;;15.59;65.75
72465;BME280;60471;52.150;4.508;2023-05-15T07:07:49;101286.25;;;15.76;66.22
72465;BME280;60471;52.150;4.508;2023-05-15T07:10:15;101288.81;;;15.78;66.17
72465;BME280;60471;52.150;4.508;2023-05-15T07:12:42;101286.06;;;15.65;66.56
72465;BME280;60471;52.150;4.508;2023-05-15T07:15:08;101291.31;;;15.22;68.68
72465;BME280;60471;52.150;4.508;2023-05-15T07:17:35;101293.03;;;15.52;67.71
72465;BME280;60471;52.150;4.508;2023-05-15T07:20:01;101301.00;;;15.52;67.38
72465;BME280;60471;52.150;4.508;2023-05-15T07:22:30;101298.44;;;15.50;66.98
72465;BME280;60471;52.150;4.508;2023-05-15T07:24:57;101303.66;;;15.37;67.99
72465;BME280;60471;52.150;4.508;2023-05-15T07:27:23;101299.59;;;15.02;69.38
72465;BME280;60471;52.150;4.508;2023-05-15T07:29:49;101305.97;;;14.99;69.54
72465;BME280;60471;52.150;4.508;2023-05-15T07:32:15;101304.09;;;15.16;69.20
72465;BME280;60471;52.150;4.508;2023-05-15T07:34:41;101302.19;;;15.18;69.05
72465;BME280;60471;52.150;4.508;2023-05-15T07:37:08;101311.38;;;15.42;68.63
72465;BME280;60471;52.150;4.508;2023-05-15T07:39:34;101310.97;;;15.20;68.42
72465;BME280;60471;52.150;4.508;2023-05-15T07:42:00;101308.34;;;15.04;69.32
72465;BME280;60471;52.150;4.508;2023-05-15T07:44:27;101303.19;;;14.71;70.23
72465;BME280;60471;52.150;4.508;2023-05-15T07:46:54;101308.22;;;14.75;71.13
72465;BME280;60471;52.150;4.508;2023-05-15T07:49:21;101303.84;;;14.90;70.72
72465;BME280;60471;52.150;4.508;2023-05-15T07:51:47;101308.66;;;14.84;70.41
72465;BME280;60471;52.150;4.508;2023-05-15T07:54:13;101307.22;;;14.78;70.97
72465;BME280;60471;52.150;4.508;2023-05-15T07:56:40;101299.38;;;14.91;70.34
72465;BME280;60471;52.150;4.508;2023-05-15T07:59:07;101307.34;;;14.91;69.68
72465;BME280;60471;52.150;4.508;2023-05-15T08:01:34;101311.06;;;14.88;70.33
72465;BME280;60471;52.150;4.508;2023-05-15T08:04:00;101306.63;;;15.03;69.98
72465;BME280;60471;52.150;4.508;2023-05-15T08:06:26;101309.16;;;14.74;70.73
72465;BME280;60471;52.150;4.508;2023-05-15T08:08:52;101312.03;;;15.01;70.37
72465;BME280;60471;52.150;4.508;2023-05-15T08:11:19;101313.88;;;14.85;70.59
72465;BME280;60471;52.150;4.508;2023-05-15T08:13:46;101313.78;;;14.87;71.21
72465;BME280;60471;52.150;4.508;2023-05-15T08:16:12;101320.31;;;14.81;71.15
72465;BME280;60471;52.150;4.508;2023-05-15T08:18:38;101307.84;;;14.52;72.67
72465;BME280;60471;52.150;4.508;2023-05-15T08:21:04;101312.69;;;14.75;72.56
72465;BME280;60471;52.150;4.508;2023-05-15T08:23:31;101305.34;;;15.10;70.80
72465;BME280;60471;52.150;4.508;2023-05-15T08:25:57;101311.28;;;14.99;70.61
72465;BME280;60471;52.150;4.508;2023-05-15T08:28:24;101304.94;;;14.86;70.94
72465;BME280;60471;52.150;4.508;2023-05-15T08:30:50;101317.78;;;14.94;70.93
72465;BME280;60471;52.150;4.508;2023-05-15T08:33:16;101310.16;;;15.03;71.41
72465;BME280;60471;52.150;4.508;2023-05-15T08:35:42;101316.00;;;14.94;71.73
72465;BME280;60471;52.150;4.508;2023-05-15T08:38:08;101314.75;;;14.70;72.49
72465;BME280;60471;52.150;4.508;2023-05-15T08:40:35;101311.81;;;14.44;73.75
72465;BME280;60471;52.150;4.508;2023-05-15T08:43:09;101312.72;;;14.59;73.85
72465;BME280;60471;52.150;4.508;2023-05-15T08:45:40;101312.75;;;14.89;73.37
72465;BME280;60471;52.150;4.508;2023-05-15T08:48:10;101316.19;;;15.21;72.50
72465;BME280;60471;52.150;4.508;2023-05-15T08:50:40;101310.72;;;15.53;70.54
72465;BME280;60471;52.150;4.508;2023-05-15T08:53:09;101312.38;;;15.70;70.49
72465;BME280;60471;52.150;4.508;2023-05-15T08:55:37;101311.19;;;15.59;69.94
72465;BME280;60471;52.150;4.508;2023-05-15T08:58:05;101304.47;;;15.54;70.16
72465;BME280;60471;52.150;4.508;2023-05-15T09:00:33;101304.19;;;15.73;69.26
72465;BME280;60471;52.150;4.508;2023-05-15T09:02:59;101302.31;;;15.75;69.51
72465;BME280;60471;52.150;4.508;2023-05-15T09:05:29;101300.88;;;15.98;68.25
72465;BME280;60471;52.150;4.508;2023-05-15T09:07:57;101311.34;;;16.28;68.20
72465;BME280;60471;52.150;4.508;2023-05-15T09:10:28;101311.34;;;16.42;67.96
72465;BME280;60471;52.150;4.508;2023-05-15T09:12:56;101319.84;;;16.61;66.06
72465;BME280;60471;52.150;4.508;2023-05-15T09:15:26;101329.41;;;16.37;65.54
72465;BME280;60471;52.150;4.508;2023-05-15T09:17:53;101326.88;;;16.76;64.76
72465;BME280;60471;52.150;4.508;2023-05-15T09:20:33;101331.44;;;16.33;65.24
72465;BME280;60471;52.150;4.508;2023-05-15T09:23:03;101324.63;;;16.01;67.58
72465;BME280;60471;52.150;4.508;2023-05-15T09:25:42;101329.28;;;15.69;68.12
72465;BME280;60471;52.150;4.508;2023-05-15T09:28:30;101319.41;;;15.99;66.85
72465;BME280;60471;52.150;4.508;2023-05-15T09:30:59;101314.63;;;16.04;67.18
72465;BME280;60471;52.150;4.508;2023-05-15T09:33:39;101318.50;;;16.27;66.36
72465;BME280;60471;52.150;4.508;2023-05-15T09:36:07;101324.34;;;16.19;65.39
72465;BME280;60471;52.150;4.508;2023-05-15T09:38:40;101329.94;;;16.15;66.42
72465;BME280;60471;52.150;4.508;2023-05-15T09:41:07;101328.22;;;16.14;65.54
72465;BME280;60471;52.150;4.508;2023-05-15T09:43:36;101332.31;;;16.05;65.92
72465;BME280;60471;52.150;4.508;2023-05-15T09:46:06;101329.78;;;15.75;67.04
72465;BME280;60471;52.150;4.508;2023-05-15T09:48:37;101337.84;;;15.88;65.93
72465;BME280;60471;52.150;4.508;2023-05-15T09:51:05;101331.94;;;15.83;65.88
72465;BME280;60471;52.150;4.508;2023-05-15T09:53:40;101331.75;;;16.14;65.88
72465;BME280;60471;52.150;4.508;2023-05-15T09:56:08;101326.53;;;16.54;64.51
72465;BME280;60471;52.150;4.508;2023-05-15T09:58:35;101330.81;;;17.10;62.69
72465;BME280;60471;52.150;4.508;2023-05-15T10:01:01;101317.88;;;17.82;60.79
72465;BME280;60471;52.150;4.508;2023-05-15T10:03:28;101331.53;;;18.03;59.33
72465;BME280;60471;52.150;4.508;2023-05-15T10:05:58;101333.97;;;18.06;58.15
72465;BME280;60471;52.150;4.508;2023-05-15T10:08:26;101333.53;;;17.49;59.48
72465;BME280;60471;52.150;4.508;2023-05-15T10:10:58;101337.97;;;17.23;60.18
72465;BME280;60471;52.150;4.508;2023-05-15T10:13:30;101333.19;;;17.15;61.26
72465;BME280;60471;52.150;4.508;2023-05-15T10:16:00;101338.53;;;16.88;61.71
72465;BME280;60471;52.150;4.508;2023-05-15T10:18:29;101338.72;;;17.25;60.88
72465;BME280;60471;52.150;4.508;2023-05-15T10:20:59;101341.63;;;17.34;59.98
72465;BME280;60471;52.150;4.508;2023-05-15T10:23:30;101335.16;;;17.89;59.16
72465;BME280;60471;52.150;4.508;2023-05-15T10:26:01;101344.84;;;17.65;59.65
72465;BME280;60471;52.150;4.508;2023-05-15T10:28:34;101330.66;;;17.90;58.95
72465;BME280;60471;52.150;4.508;2023-05-15T10:31:01;101341.91;;;18.32;57.93
72465;BME280;60471;52.150;4.508;2023-05-15T10:33:29;101347.88;;;18.48;55.48
72465;BME280;60471;52.150;4.508;2023-05-15T10:35:57;101340.75;;;18.36;56.27
72465;BME280;60471;52.150;4.508;2023-05-15T10:38:24;101346.13;;;18.10;57.51
72465;BME280;60471;52.150;4.508;2023-05-15T10:40:54;101343.38;;;17.99;57.84
72465;BME280;60471;52.150;4.508;2023-05-15T10:43:23;101351.25;;;17.50;58.91
72465;BME280;60471;52.150;4.508;2023-05-15T10:45:51;101350.22;;;16.73;60.83
72465;BME280;60471;52.150;4.508;2023-05-15T10:48:18;101350.50;;;16.95;61.54
72465;BME280;60471;52.150;4.508;2023-05-15T10:50:47;101348.09;;;17.18;60.52
72465;BME280;60471;52.150;4.508;2023-05-15T10:53:14;101343.31;;;17.35;60.25
72465;BME280;60471;52.150;4.508;2023-05-15T10:55:41;101342.69;;;16.92;60.83
72465;BME280;60471;52.150;4.508;2023-05-15T10:58:08;101338.16;;;17.07;61.01
72465;BME280;60471;52.150;4.508;2023-05-15T11:00:41;101343.03;;;17.00;61.32
72465;BME280;60471;52.150;4.508;2023-05-15T11:03:13;101338.41;;;16.63;62.72
72465;BME280;60471;52.150;4.508;2023-05-15T11:06:06;101348.97;;;16.64;62.45
72465;BME280;60471;52.150;4.508;2023-05-15T11:08:37;101348.31;;;16.61;62.72
72465;BME280;60471;52.150;4.508;2023-05-15T11:11:05;101347.41;;;16.33;64.28
72465;BME280;60471;52.150;4.508;2023-05-15T11:17:07;101347.75;;;15.86;66.16
72465;BME280;60471;52.150;4.508;2023-05-15T11:19:54;101337.28;;;15.97;65.34
72465;BME280;60471;52.150;4.508;2023-05-15T11:22:31;101348.75;;;15.69;66.08
72465;BME280;60471;52.150;4.508;2023-05-15T11:25:01;101349.16;;;15.91;65.65
72465;BME280;60471;52.150;4.508;2023-05-15T11:27:36;101349.53;;;16.14;64.80
72465;BME280;60471;52.150;4.508;2023-05-15T11:30:15;101350.94;;;16.34;63.88
72465;BME280;60471;52.150;4.508;2023-05-15T11:33:00;101356.31;;;16.61;63.67
72465;BME280;60471;52.150;4.508;2023-05-15T11:35:43;101358.94;;;16.19;63.94
72465;BME280;60471;52.150;4.508;2023-05-15T11:38:14;101361.13;;;15.84;64.78
72465;BME280;60471;52.150;4.508;2023-05-15T11:40:50;101363.91;;;15.97;64.12
72465;BME280;60471;52.150;4.508;2023-05-15T11:43:24;101357.53;;;15.85;64.81
72465;BME280;60471;52.150;4.508;2023-05-15T11:46:03;101347.34;;;15.92;64.95
72465;BME280;60471;52.150;4.508;2023-05-15T11:48:32;101354.84;;;16.28;63.76
72465;BME280;60471;52.150;4.508;2023-05-15T11:51:04;101347.69;;;16.43;63.25
72465;BME280;60471;52.150;4.508;2023-05-15T11:53:39;101348.75;;;16.26;63.99
72465;BME280;60471;52.150;4.508;2023-05-15T11:56:06;101345.56;;;16.48;62.22
72465;BME280;60471;52.150;4.508;2023-05-15T11:58:32;101346.19;;;16.66;62.14
72465;BME280;60471;52.150;4.508;2023-05-15T12:00:58;101339.25;;;16.22;63.16
72465;BME280;60471;52.150;4.508;2023-05-15T12:03:32;101350.84;;;16.21;63.41
72465;BME280;60471;52.150;4.508;2023-05-15T12:06:01;101353.34;;;15.96;63.43
72465;BME280;60471;52.150;4.508;2023-05-15T12:08:31;101352.47;;;16.23;63.37
72465;BME280;60471;52.150;4.508;2023-05-15T12:11:00;101349.13;;;17.02;60.73
72465;BME280;60471;52.150;4.508;2023-05-15T12:13:27;101351.88;;;17.28;58.89
72465;BME280;60471;52.150;4.508;2023-05-15T12:15:56;101357.38;;;17.25;58.15
72465;BME280;60471;52.150;4.508;2023-05-15T12:18:23;101351.44;;;17.47;57.99
72465;BME280;60471;52.150;4.508;2023-05-15T12:20:52;101353.88;;;17.24;58.17
72465;BME280;60471;52.150;4.508;2023-05-15T12:23:21;101352.78;;;17.14;58.09
72465;BME280;60471;52.150;4.508;2023-05-15T12:25:50;101358.41;;;17.62;57.52
72465;BME280;60471;52.150;4.508;2023-05-15T12:28:22;101358.56;;;17.73;57.67
72465;BME280;60471;52.150;4.508;2023-05-15T12:30:49;101352.75;;;17.54;57.47
72465;BME280;60471;52.150;4.508;2023-05-15T12:33:16;101358.94;;;17.02;58.89
72465;BME280;60471;52.150;4.508;2023-05-15T12:35:49;101363.97;;;17.06;59.08
72465;BME280;60471;52.150;4.508;2023-05-15T12:38:19;101354.91;;;17.09;58.76
72465;BME280;60471;52.150;4.508;2023-05-15T12:40:50;101359.00;;;16.88;59.29
72465;BME280;60471;52.150;4.508;2023-05-15T12:43:18;101372.03;;;16.37;60.94
72465;BME280;60471;52.150;4.508;2023-05-15T12:45:45;101362.91;;;15.84;62.11
72465;BME280;60471;52.150;4.508;2023-05-15T12:48:14;101371.22;;;15.49;62.99
72465;BME280;60471;52.150;4.508;2023-05-15T12:50:43;101370.00;;;15.85;62.72
72465;BME280;60471;52.150;4.508;2023-05-15T12:53:12;101371.19;;;15.65;62.47
72465;BME280;60471;52.150;4.508;2023-05-15T12:55:44;101373.69;;;15.97;61.96
72465;BME280;60471;52.150;4.508;2023-05-15T12:58:12;101362.94;;;16.12;61.42
72465;BME280;60471;52.150;4.508;2023-05-15T13:00:43;101362.81;;;15.71;63.13
72465;BME280;60471;52.150;4.508;2023-05-15T13:03:12;101374.41;;;15.70;62.83
72465;BME280;60471;52.150;4.508;2023-05-15T13:05:41;101375.22;;;15.42;63.39
72465;BME280;60471;52.150;4.508;2023-05-15T13:08:14;101368.50;;;15.21;64.41
72465;BME280;60471;52.150;4.508;2023-05-15T13:10:42;101370.16;;;15.37;64.08
72465;BME280;60471;52.150;4.508;2023-05-15T13:13:10;101370.53;;;15.76;63.07
72465;BME280;60471;52.150;4.508;2023-05-15T13:15:38;101376.81;;;15.89;63.02
72465;BME280;60471;52.150;4.508;2023-05-15T13:18:09;101377.63;;;15.61;63.85
72465;BME280;60471;52.150;4.508;2023-05-15T13:20:48;101374.97;;;15.61;63.51
72465;BME280;60471;52.150;4.508;2023-05-15T13:23:20;101381.81;;;15.35;64.26